Time;durP1;ratioP1;P1;durP2;ratioP2;P2;SDS_P1;SDS_P2;PMS_P1;PMS_P2;Temp;Humidity;BMP_temperature;BMP_pressure;BME280_temperature;BME280_humidity;BME280_pressure;Samples;Min_cycle;Max_cycle;Signal;HPM_P1;HPM_P2
2023/07/13 00:01:18;;;;;;;6.03;1.88;;;22.40;91.30;;;;;;4996513;28;21107;-92
2023/07/13 00:03:45;;;;;;;2.20;1.55;;;22.30;91.10;;;;;;5004167;28;20399;-92
2023/07/13 00:06:12;;;;;;;3.25;1.67;;;22.20;91.30;;;;;;4999515;28;20688;-92
2023/07/13 00:08:44;;;;;;;4.05;1.70;;;22.20;91.30;;;;;;4965282;28;20407;-93
2023/07/13 00:11:20;;;;;;;5.07;1.70;;;22.10;91.20;;;;;;4984373;28;20567;-91
2023/07/13 00:13:47;;;;;;;2.60;1.60;;;22.10;91.40;;;;;;4964855;28;20419;-93
2023/07/13 00:16:13;;;;;;;3.05;1.50;;;22.20;91.20;;;;;;4987752;28;20415;-94
2023/07/13 00:18:41;;;;;;;2.17;1.63;;;22.20;91.10;;;;;;5006599;28;20494;-93
2023/07/13 00:21:08;;;;;;;2.30;1.60;;;22.10;91.20;;;;;;4973624;28;20416;-95
2023/07/13 00:23:42;;;;;;;2.37;1.63;;;22.00;91.10;;;;;;4982003;28;20663;-94
2023/07/13 00:26:12;;;;;;;3.17;1.73;;;22.00;91.20;;;;;;4978823;28;21049;-95
2023/07/13 00:28:44;;;;;;;2.20;1.50;;;21.90;91.30;;;;;;4989533;28;20924;-95
2023/07/13 00:31:16;;;;;;;2.70;1.60;;;21.90;91.20;;;;;;5005934;28;21078;-95
2023/07/13 00:33:44;;;;;;;3.22;1.70;;;22.00;91.30;;;;;;4970433;28;20448;-96
2023/07/13 00:36:14;;;;;;;1.65;1.42;;;22.00;91.50;;;;;;4974619;28;20407;-94
2023/07/13 00:38:47;;;;;;;3.70;1.45;;;21.90;91.30;;;;;;5003732;28;20765;-95
2023/07/13 00:41:17;;;;;;;4.27;1.80;;;21.90;91.30;;;;;;4989199;28;20411;-95
2023/07/13 00:43:47;;;;;;;2.47;1.60;;;21.80;91.20;;;;;;4993970;28;20775;-96
2023/07/13 00:46:25;;;;;;;3.60;1.60;;;21.80;91.30;;;;;;4989663;28;20911;-96
2023/07/13 00:49:03;;;;;;;3.60;1.50;;;21.70;91.40;;;;;;5023563;28;20411;-95
2023/07/13 00:52:17;;;;;;;;;;;;;;;;;;;;;
2023/07/13 00:54:50;;;;;;;2.07;1.60;;;21.70;91.50;;;;;;5005808;28;20403;-96
2023/07/13 00:57:23;;;;;;;2.83;1.60;;;21.70;91.60;;;;;;5010105;28;20442;-96
2023/07/13 01:00:04;;;;;;;4.97;1.80;;;21.70;91.80;;;;;;4990249;28;21094;-96
2023/07/13 01:02:38;;;;;;;3.67;1.50;;;21.70;91.90;;;;;;5000259;28;20422;-96
2023/07/13 01:05:19;;;;;;;5.38;1.90;;;21.70;91.90;;;;;;4995525;28;20412;-96
2023/07/13 01:07:55;;;;;;;2.70;1.60;;;21.70;91.80;;;;;;4977819;28;20952;-96
2023/07/13 01:10:26;;;;;;;3.30;1.67;;;21.80;91.80;;;;;;4976829;28;20502;-96
2023/07/13 01:12:53;;;;;;;3.23;1.73;;;21.80;91.70;;;;;;5021331;28;20444;-96
2023/07/13 01:15:44;;;;;;;2.50;1.55;;;21.80;91.80;;;;;;4996011;28;20513;-96
2023/07/13 01:18:19;;;;;;;2.40;1.50;;;21.70;92.10;;;;;;5010412;28;20417;-95
2023/07/13 01:20:58;;;;;;;2.50;1.70;;;21.70;91.90;;;;;;4953909;28;20492;-95
2023/07/13 01:23:28;;;;;;;4.30;1.80;;;21.70;92.20;;;;;;5009926;28;20444;-95
2023/07/13 01:25:57;;;;;;;3.33;1.60;;;21.60;92.00;;;;;;4994241;28;20901;-90
2023/07/13 01:28:30;;;;;;;4.85;1.60;;;21.60;92.10;;;;;;4993132;28;20854;-90
2023/07/13 01:30:59;;;;;;;2.75;1.60;;;21.60;92.10;;;;;;5005417;28;20414;-89
2023/07/13 01:33:28;;;;;;;3.42;1.55;;;21.70;92.20;;;;;;4977014;28;20427;-89
2023/07/13 01:35:59;;;;;;;2.80;1.67;;;21.70;92.30;;;;;;4992519;28;20473;-90
2023/07/13 01:38:27;;;;;;;2.28;1.42;;;21.70;92.30;;;;;;4992641;28;20419;-90
2023/07/13 01:41:22;;;;;;;2.28;1.60;;;21.70;92.30;;;;;;4997247;28;20415;-90
2023/07/13 01:43:56;;;;;;;2.85;1.48;;;21.70;92.10;;;;;;5002214;28;20788;-90
2023/07/13 01:46:28;;;;;;;2.85;1.60;;;21.70;92.20;;;;;;4989497;28;20420;-90
2023/07/13 01:48:58;;;;;;;2.27;1.67;;;21.70;92.10;;;;;;4971144;28;20416;-90
2023/07/13 01:51:28;;;;;;;2.60;1.50;;;21.70;92.20;;;;;;5008057;28;20765;-90
2023/07/13 01:53:54;;;;;;;4.65;1.80;;;21.80;92.20;;;;;;5013563;28;20430;-89
2023/07/13 01:56:21;;;;;;;2.23;1.50;;;21.80;92.20;;;;;;4992296;28;21261;-90
2023/07/13 01:58:54;;;;;;;2.47;1.55;;;21.80;92.20;;;;;;4992056;28;20498;-90
2023/07/13 02:01:24;;;;;;;5.23;1.70;;;21.80;92.20;;;;;;4992950;28;20507;-90
2023/07/13 02:04:07;;;;;;;4.72;1.70;;;21.80;92.30;;;;;;4998896;28;20506;-90
2023/07/13 02:06:38;;;;;;;3.13;1.70;;;21.90;92.30;;;;;;4993293;28;20434;-90
2023/07/13 02:09:08;;;;;;;2.93;1.60;;;21.90;92.20;;;;;;4990552;28;20415;-89
2023/07/13 02:11:36;;;;;;;3.55;1.70;;;21.90;92.20;;;;;;4991700;28;20417;-90
2023/07/13 02:14:24;;;;;;;2.53;1.55;;;21.90;92.10;;;;;;4969350;28;20418;-91
2023/07/13 02:16:59;;;;;;;2.92;1.70;;;21.90;92.10;;;;;;4947796;28;20561;-90
2023/07/13 02:19:25;;;;;;;4.37;1.70;;;21.90;91.90;;;;;;4952076;28;20414;-89
2023/07/13 02:21:52;;;;;;;2.47;1.60;;;21.90;92.00;;;;;;4954644;28;20446;-90
2023/07/13 02:24:20;;;;;;;3.20;1.80;;;21.90;91.80;;;;;;4945614;28;20420;-89
2023/07/13 02:26:50;;;;;;;2.63;1.60;;;21.90;91.90;;;;;;4965969;28;20410;-90
2023/07/13 02:29:16;;;;;;;3.90;1.88;;;21.80;91.90;;;;;;4951219;28;20423;-91
2023/07/13 02:31:48;;;;;;;4.10;1.50;;;21.80;91.80;;;;;;4962820;28;20430;-90
2023/07/13 02:34:16;;;;;;;3.90;1.80;;;21.90;91.80;;;;;;4960719;28;20423;-88
2023/07/13 02:36:43;;;;;;;1.83;1.60;;;21.90;92.10;;;;;;4963086;28;20422;-88
2023/07/13 02:39:16;;;;;;;3.40;1.75;;;21.90;91.60;;;;;;4934264;28;20449;-88
2023/07/13 02:41:44;;;;;;;2.05;1.52;;;21.90;91.70;;;;;;4917545;28;20828;-90
2023/07/13 02:44:19;;;;;;;4.00;1.90;;;22.00;91.70;;;;;;4947814;28;20490;-92
2023/07/13 02:46:55;;;;;;;2.28;1.63;;;22.00;91.70;;;;;;4985127;28;20813;-90
2023/07/13 02:49:26;;;;;;;5.60;1.60;;;22.10;91.60;;;;;;5003097;28;20915;-89
2023/07/13 02:52:01;;;;;;;2.75;1.63;;;22.10;91.50;;;;;;5006486;28;20452;-90
2023/07/13 02:54:29;;;;;;;4.40;1.60;;;22.20;91.50;;;;;;5001127;28;20480;-91
2023/07/13 02:56:56;;;;;;;6.35;1.60;;;22.30;91.60;;;;;;4973370;28;21811;-91
2023/07/13 02:59:25;;;;;;;2.38;1.75;;;22.30;91.60;;;;;;5003284;28;20415;-90
2023/07/13 03:01:58;;;;;;;3.17;1.63;;;22.30;91.60;;;;;;4988855;28;20882;-90
2023/07/13 03:04:27;;;;;;;5.72;1.85;;;22.30;91.70;;;;;;5004870;28;20422;-91
2023/07/13 03:06:57;;;;;;;3.33;1.50;;;22.40;91.80;;;;;;5005171;28;20515;-91
2023/07/13 03:09:40;;;;;;;3.63;1.80;;;22.40;91.90;;;;;;4972576;28;20415;-91
2023/07/13 03:12:08;;;;;;;2.53;1.67;;;22.40;91.90;;;;;;4975306;28;20521;-90
2023/07/13 03:14:34;;;;;;;6.35;1.63;;;22.40;92.00;;;;;;4986906;28;20829;-88
2023/07/13 03:17:01;;;;;;;2.38;1.65;;;22.40;91.90;;;;;;4989847;28;20414;-89
2023/07/13 03:19:29;;;;;;;3.38;1.70;;;22.40;91.90;;;;;;4969173;28;20422;-88
2023/07/13 03:21:58;;;;;;;4.85;1.52;;;22.40;91.90;;;;;;4973211;28;20413;-89
2023/07/13 03:24:40;;;;;;;5.32;1.60;;;22.50;91.80;;;;;;4978472;28;20459;-89
2023/07/13 03:27:09;;;;;;;3.92;1.67;;;22.60;91.90;;;;;;5004894;28;20907;-87
2023/07/13 03:29:41;;;;;;;3.95;1.70;;;22.60;91.90;;;;;;5004620;28;21035;-89
2023/07/13 03:32:15;;;;;;;3.22;1.70;;;22.70;92.00;;;;;;5004654;28;20410;-89
2023/07/13 03:34:43;;;;;;;3.88;1.60;;;22.70;92.00;;;;;;4988300;28;20420;-90
2023/07/13 03:37:18;;;;;;;3.10;1.73;;;22.70;91.90;;;;;;4975206;28;20423;-89
2023/07/13 03:39:46;;;;;;;3.90;1.83;;;22.70;92.10;;;;;;4993502;28;20438;-89
2023/07/13 03:42:14;;;;;;;3.20;1.77;;;22.80;92.20;;;;;;4991622;28;20415;-90
2023/07/13 03:44:52;;;;;;;3.53;1.60;;;22.70;92.40;;;;;;5023793;28;20511;-87
2023/07/13 03:47:24;;;;;;;2.10;1.70;;;22.80;92.50;;;;;;4986247;28;20974;-90
2023/07/13 03:50:03;;;;;;;4.72;1.65;;;22.70;92.50;;;;;;5004875;28;20426;-90
2023/07/13 03:52:32;;;;;;;2.50;1.73;;;22.70;92.60;;;;;;4985264;28;20858;-90
2023/07/13 03:54:59;;;;;;;2.83;1.58;;;22.70;92.80;;;;;;5005213;28;20405;-88
2023/07/13 03:57:26;;;;;;;6.38;1.60;;;22.70;92.90;;;;;;5004334;28;20419;-90
2023/07/13 03:59:52;;;;;;;3.15;1.73;;;22.70;93.20;;;;;;4993201;28;20429;-89
2023/07/13 04:02:20;;;;;;;2.15;1.60;;;22.70;93.40;;;;;;5000687;28;20403;-88
2023/07/13 04:04:50;;;;;;;3.00;1.70;;;22.70;93.60;;;;;;4992343;28;20411;-87
2023/07/13 04:07:16;;;;;;;3.85;1.63;;;22.60;93.60;;;;;;4988411;28;20885;-88
2023/07/13 04:09:46;;;;;;;3.75;1.80;;;22.70;93.60;;;;;;5001008;28;20746;-90
2023/07/13 04:12:14;;;;;;;2.63;1.80;;;22.70;93.60;;;;;;5003920;28;20443;-90
2023/07/13 04:14:40;;;;;;;3.65;1.80;;;22.70;93.60;;;;;;4971196;28;20416;-88
2023/07/13 04:17:07;;;;;;;2.70;1.60;;;22.60;93.80;;;;;;4989594;28;20492;-90
2023/07/13 04:19:36;;;;;;;3.60;1.80;;;22.70;93.90;;;;;;5006487;28;20407;-89
2023/07/13 04:22:06;;;;;;;2.80;1.88;;;22.70;94.10;;;;;;4992318;28;20448;-90
2023/07/13 04:24:32;;;;;;;4.97;1.60;;;22.70;94.40;;;;;;5020862;28;20422;-89
2023/07/13 04:27:00;;;;;;;3.85;1.88;;;22.80;94.50;;;;;;4990502;28;20480;-88
2023/07/13 04:29:29;;;;;;;4.20;1.70;;;22.80;94.30;;;;;;4989941;28;21124;-88
2023/07/13 04:31:59;;;;;;;1.87;1.63;;;22.90;94.20;;;;;;5004619;28;20458;-87
2023/07/13 04:34:37;;;;;;;7.40;1.77;;;22.90;94.10;;;;;;5009384;28;20458;-89
2023/07/13 04:37:07;;;;;;;3.70;1.90;;;23.00;94.30;;;;;;5007078;28;20420;-88
2023/07/13 04:39:51;;;;;;;4.05;1.77;;;23.10;94.00;;;;;;5006595;28;20422;-88
2023/07/13 04:42:23;;;;;;;2.80;1.60;;;23.20;94.20;;;;;;5017928;28;20684;-88
2023/07/13 04:44:55;;;;;;;2.20;1.60;;;23.30;94.70;;;;;;5025662;28;20403;-89
2023/07/13 04:47:22;;;;;;;2.65;1.73;;;23.40;94.50;;;;;;5005363;28;20418;-90
2023/07/13 04:49:55;;;;;;;2.65;1.60;;;23.50;94.50;;;;;;5008490;28;20429;-89
2023/07/13 04:52:21;;;;;;;5.55;1.75;;;23.60;94.40;;;;;;4989640;28;20415;-90
2023/07/13 04:54:48;;;;;;;3.42;1.55;;;23.60;94.70;;;;;;5008223;28;20978;-88
2023/07/13 04:57:21;;;;;;;2.25;1.70;;;23.70;94.90;;;;;;4998982;28;20421;-88
2023/07/13 04:59:47;;;;;;;3.42;1.90;;;23.80;94.70;;;;;;5004230;28;20976;-90
2023/07/13 05:02:17;;;;;;;3.00;1.80;;;23.80;94.90;;;;;;4986167;28;20413;-87
2023/07/13 05:04:49;;;;;;;2.17;1.60;;;23.90;94.80;;;;;;5018653;28;21037;-90
2023/07/13 05:07:23;;;;;;;2.28;1.70;;;24.00;94.40;;;;;;4987121;28;20458;-89
2023/07/13 05:09:53;;;;;;;3.30;1.67;;;24.00;94.40;;;;;;5007940;28;20411;-89
2023/07/13 05:12:25;;;;;;;3.80;1.80;;;24.10;94.00;;;;;;4994322;28;20442;-90
2023/07/13 05:15:01;;;;;;;3.10;1.67;;;24.20;93.80;;;;;;5003944;28;20457;-87
2023/07/13 05:17:28;;;;;;;2.80;1.70;;;24.30;94.20;;;;;;5006240;28;20851;-88
2023/07/13 05:20:00;;;;;;;2.70;1.70;;;24.30;94.70;;;;;;4975119;28;20419;-88
2023/07/13 05:22:27;;;;;;;5.53;1.70;;;24.40;94.50;;;;;;5004343;28;20417;-90
2023/07/13 05:24:55;;;;;;;5.80;1.80;;;24.40;94.00;;;;;;4990415;28;20409;-89
2023/07/13 05:27:27;;;;;;;4.85;1.70;;;24.50;94.10;;;;;;4987514;28;20411;-88
2023/07/13 05:29:57;;;;;;;4.93;1.73;;;24.60;94.40;;;;;;5004759;28;20442;-88
2023/07/13 05:32:26;;;;;;;6.75;1.77;;;24.60;94.10;;;;;;4988710;28;20934;-86
2023/07/13 05:34:58;;;;;;;4.13;1.80;;;24.70;94.60;;;;;;4975945;28;20420;-88
2023/07/13 05:37:24;;;;;;;3.17;1.65;;;24.80;94.40;;;;;;4988317;28;20419;-88
2023/07/13 05:39:51;;;;;;;3.97;1.80;;;24.80;94.40;;;;;;4987186;28;20941;-88
2023/07/13 05:42:21;;;;;;;4.97;1.80;;;24.90;94.60;;;;;;4988501;28;20405;-88
2023/07/13 05:44:50;;;;;;;5.28;1.90;;;25.00;94.40;;;;;;4989993;28;21324;-88
2023/07/13 05:47:22;;;;;;;2.55;1.70;;;25.00;94.20;;;;;;4977187;28;20419;-89
2023/07/13 05:49:49;;;;;;;2.97;1.63;;;25.10;94.00;;;;;;5008179;28;20562;-90
2023/07/13 05:52:28;;;;;;;4.35;2.08;;;25.20;93.90;;;;;;4988538;28;20414;-90
2023/07/13 05:55:00;;;;;;;5.47;1.80;;;25.30;94.60;;;;;;5022185;28;20476;-90
2023/07/13 05:57:46;;;;;;;7.38;1.90;;;25.40;93.90;;;;;;4964367;28;20482;-89
2023/07/13 06:00:20;;;;;;;5.30;2.00;;;25.50;93.60;;;;;;5007472;28;20877;-90
2023/07/13 06:02:55;;;;;;;4.18;1.70;;;25.60;94.10;;;;;;5022661;28;21197;-90
2023/07/13 06:05:35;;;;;;;4.05;1.98;;;25.60;94.00;;;;;;5026146;28;20407;-91
2023/07/13 06:08:15;;;;;;;5.80;1.80;;;26.00;94.30;;;;;;4993172;28;20444;-89
2023/07/13 06:10:43;;;;;;;2.87;1.70;;;26.10;93.90;;;;;;4997879;28;20438;-88
2023/07/13 06:13:13;;;;;;;5.90;1.90;;;26.20;93.60;;;;;;4981336;28;20406;-90
2023/07/13 06:15:53;;;;;;;4.63;1.70;;;26.30;92.70;;;;;;4984424;28;20407;-89
2023/07/13 06:18:21;;;;;;;4.40;1.95;;;26.40;93.20;;;;;;4989705;28;20501;-88
2023/07/13 06:20:49;;;;;;;4.25;1.77;;;26.40;92.90;;;;;;4985412;28;20824;-89
2023/07/13 06:23:37;;;;;;;3.47;1.80;;;26.50;92.60;;;;;;4989352;28;20410;-89
2023/07/13 06:26:17;;;;;;;3.70;1.92;;;26.70;92.50;;;;;;5005002;28;20411;-89
2023/07/13 06:28:55;;;;;;;3.40;1.88;;;26.80;92.40;;;;;;4972263;28;20433;-90
2023/07/13 06:31:39;;;;;;;5.37;2.10;;;26.90;92.00;;;;;;4991572;28;20869;-91
2023/07/13 06:34:15;;;;;;;7.00;2.10;;;27.00;92.10;;;;;;5005199;28;20910;-90
2023/07/13 06:36:49;;;;;;;2.60;1.75;;;27.10;91.40;;;;;;5013163;28;20407;-92
2023/07/13 06:39:27;;;;;;;4.97;2.00;;;27.20;92.00;;;;;;5012930;28;20498;-91
2023/07/13 06:42:01;;;;;;;3.08;1.90;;;27.30;91.70;;;;;;4997871;28;20545;-90
2023/07/13 06:44:45;;;;;;;2.97;1.90;;;27.40;92.00;;;;;;5012466;28;20400;-89
2023/07/13 06:47:26;;;;;;;3.47;2.00;;;27.40;91.60;;;;;;4995955;28;20449;-92
2023/07/13 06:50:04;;;;;;;3.47;2.00;;;27.60;91.10;;;;;;4990480;28;20415;-93
2023/07/13 06:52:41;;;;;;;5.20;2.08;;;27.60;91.70;;;;;;5033073;28;20487;-93
2023/07/13 06:55:14;;;;;;;4.43;2.00;;;27.80;91.20;;;;;;4997272;28;20502;-89
2023/07/13 06:57:53;;;;;;;6.15;2.10;;;27.90;91.40;;;;;;4996388;28;20415;-91
2023/07/13 07:00:34;;;;;;;5.75;2.20;;;27.90;91.00;;;;;;4996033;28;20407;-89
2023/07/13 07:03:01;;;;;;;3.57;2.07;;;28.00;90.80;;;;;;5009828;28;21137;-89
2023/07/13 07:05:35;;;;;;;6.65;2.00;;;28.20;91.00;;;;;;5012670;28;20789;-91
2023/07/13 07:08:12;;;;;;;4.03;1.95;;;28.40;90.70;;;;;;5031853;28;20438;-88
2023/07/13 07:10:53;;;;;;;3.72;1.83;;;28.50;90.50;;;;;;5013290;28;20402;-90
2023/07/13 07:13:28;;;;;;;2.67;1.88;;;28.60;91.00;;;;;;4994331;28;20946;-88
2023/07/13 07:16:06;;;;;;;5.22;2.10;;;28.80;90.50;;;;;;5007721;28;20571;-92
2023/07/13 07:18:43;;;;;;;4.30;2.40;;;28.80;90.70;;;;;;5026463;28;20419;-89
2023/07/13 07:21:18;;;;;;;4.73;2.20;;;29.00;91.00;;;;;;5013655;28;20757;-88
2023/07/13 07:23:50;;;;;;;6.00;2.10;;;29.00;91.20;;;;;;5024719;28;20403;-91
2023/07/13 07:26:30;;;;;;;5.43;2.10;;;29.10;91.30;;;;;;5030404;28;20518;-89
2023/07/13 07:29:30;;;;;;;3.63;2.03;;;29.20;91.00;;;;;;5013826;28;21101;-93
2023/07/13 07:32:01;;;;;;;6.57;2.05;;;29.40;91.20;;;;;;4992408;28;20424;-91
2023/07/13 07:34:37;;;;;;;3.87;2.00;;;29.50;91.10;;;;;;4995170;28;20415;-89
2023/07/13 07:37:33;;;;;;;3.78;2.30;;;29.50;91.20;;;;;;5019148;28;21131;-88
2023/07/13 07:40:19;;;;;;;4.45;1.90;;;29.60;91.30;;;;;;4996342;28;20457;-92
2023/07/13 07:42:57;;;;;;;3.22;1.90;;;29.70;91.30;;;;;;5022810;28;20838;-91
2023/07/13 07:45:32;;;;;;;3.33;2.10;;;29.80;91.00;;;;;;5008190;28;20892;-87
2023/07/13 07:48:13;;;;;;;4.78;2.15;;;30.00;90.60;;;;;;5010726;28;20415;-92
2023/07/13 07:51:06;;;;;;;8.38;2.10;;;30.20;90.70;;;;;;5012005;28;20897;-90
2023/07/13 07:53:52;;;;;;;4.05;2.10;;;30.30;90.70;;;;;;5003077;28;20416;-91
2023/07/13 07:56:30;;;;;;;5.95;2.28;;;30.30;90.60;;;;;;4985195;28;20547;-96
2023/07/13 07:59:21;;;;;;;6.50;2.20;;;30.30;90.70;;;;;;5013157;28;20415;-95
2023/07/13 08:01:51;;;;;;;15.27;3.20;;;30.40;91.00;;;;;;4982691;28;20410;-95
2023/07/13 08:04:25;;;;;;;35.97;5.00;;;30.50;91.00;;;;;;4994527;28;20446;-95
2023/07/13 08:06:56;;;;;;;6.30;2.30;;;30.70;90.90;;;;;;4995505;28;20411;-95
2023/07/13 08:09:28;;;;;;;16.67;2.75;;;30.80;90.80;;;;;;5012291;28;20542;-95
2023/07/13 08:12:05;;;;;;;3.80;2.10;;;30.80;91.40;;;;;;5010652;28;20947;-92
2023/07/13 08:14:36;;;;;;;6.20;2.10;;;30.90;91.60;;;;;;4994790;28;20418;-96
2023/07/13 08:17:10;;;;;;;5.77;2.40;;;31.10;92.20;;;;;;5015203;28;20426;-92
2023/07/13 08:19:52;;;;;;;4.95;2.22;;;31.10;92.30;;;;;;4998549;28;20503;-94
2023/07/13 08:22:28;;;;;;;7.72;2.10;;;31.20;92.90;;;;;;4997601;28;20928;-96
2023/07/13 08:25:01;;;;;;;3.65;1.98;;;31.30;93.00;;;;;;5011968;28;20418;-95
2023/07/13 08:27:38;;;;;;;5.15;2.15;;;31.40;93.40;;;;;;5011368;28;20434;-96
2023/07/13 08:30:11;;;;;;;6.30;2.20;;;31.50;93.40;;;;;;5029393;28;20411;-93
2023/07/13 08:32:53;;;;;;;5.45;2.50;;;31.70;93.70;;;;;;5004805;28;20427;-96
2023/07/13 08:35:21;;;;;;;251.93;18.10;;;31.80;93.20;;;;;;4994497;28;20908;-96
2023/07/13 08:37:54;;;;;;;226.93;17.80;;;32.00;93.30;;;;;;5008847;28;20430;-96
2023/07/13 08:40:37;;;;;;;157.98;13.23;;;32.10;93.30;;;;;;4974467;28;20697;-94
2023/07/13 08:43:21;;;;;;;6.68;2.65;;;32.40;93.10;;;;;;4976455;28;20413;-93
2023/07/13 08:46:02;;;;;;;5.70;2.40;;;32.50;93.00;;;;;;4993897;28;20423;-92
2023/07/13 08:49:23;;;;;;;36.70;5.20;;;32.50;93.10;;;;;;4993923;28;20414;-95
2023/07/13 08:52:12;;;;;;;5.05;2.08;;;32.50;93.10;;;;;;5010662;28;20873;-94
2023/07/13 08:55:39;;;;;;;3.95;2.30;;;32.60;93.40;;;;;;4986883;28;20458;-91
2023/07/13 08:58:19;;;;;;;8.45;2.30;;;32.70;93.50;;;;;;4993565;28;20818;-96
2023/07/13 09:01:47;;;;;;;3.92;2.50;;;32.80;93.00;;;;;;5025603;28;20443;-96
2023/07/13 09:04:51;;;;;;;5.38;2.20;;;32.80;93.20;;;;;;4992568;28;20653;-94
2023/07/13 09:08:17;;;;;;;3.55;2.35;;;32.90;93.40;;;;;;4965589;28;20427;-96
2023/07/13 09:11:13;;;;;;;5.20;2.17;;;33.00;93.40;;;;;;4993705;28;20403;-94
2023/07/13 09:14:47;;;;;;;9.73;2.50;;;33.20;94.10;;;;;;5010758;28;20438;-93
2023/07/13 09:17:55;;;;;;;6.00;2.33;;;33.30;93.80;;;;;;4938054;28;20446;-96
2023/07/13 09:20:42;;;;;;;4.97;2.42;;;33.50;94.20;;;;;;4942573;28;20408;-94
2023/07/13 09:23:26;;;;;;;6.80;2.28;;;33.60;94.30;;;;;;4990619;28;20458;-95
2023/07/13 09:26:09;;;;;;;6.38;2.40;;;33.60;94.60;;;;;;4971989;28;20410;-94
2023/07/13 09:28:48;;;;;;;6.95;2.42;;;33.50;94.60;;;;;;4990766;28;20432;-96
2023/07/13 09:31:54;;;;;;;3.83;2.40;;;33.60;94.90;;;;;;4961921;28;21239;-96
2023/07/13 09:34:24;;;;;;;3.85;2.30;;;33.80;94.80;;;;;;4990133;28;20417;-93
2023/07/13 09:37:11;;;;;;;9.60;2.30;;;33.90;94.80;;;;;;4996891;28;20424;-95
2023/07/13 09:39:48;;;;;;;5.53;2.30;;;33.90;94.80;;;;;;4976497;28;20503;-94
2023/07/13 09:42:23;;;;;;;5.40;2.30;;;34.00;95.00;;;;;;4974253;28;20412;-96
2023/07/13 09:45:03;;;;;;;4.85;2.40;;;34.00;95.40;;;;;;4990256;28;20447;-96
2023/07/13 09:47:38;;;;;;;82.38;8.85;;;34.20;95.10;;;;;;4973791;28;20499;-93
2023/07/13 09:50:22;;;;;;;5.07;2.55;;;34.40;95.50;;;;;;4959291;28;20459;-94
2023/07/13 09:52:58;;;;;;;4.27;2.20;;;34.50;95.10;;;;;;4974678;28;20466;-93
2023/07/13 09:56:19;;;;;;;8.18;2.30;;;34.40;95.50;;;;;;4989212;28;20416;-94
2023/07/13 09:58:49;;;;;;;6.50;2.50;;;34.50;95.60;;;;;;4973878;28;20422;-95
2023/07/13 10:01:35;;;;;;;9.57;2.72;;;34.50;95.60;;;;;;5006073;28;20419;-94
2023/07/13 10:04:13;;;;;;;5.32;2.45;;;34.50;95.10;;;;;;5013071;28;20419;-94
2023/07/13 10:06:45;;;;;;;5.78;2.50;;;34.60;95.30;;;;;;4979283;28;20429;-91
2023/07/13 10:09:23;;;;;;;3.47;2.30;;;34.60;95.10;;;;;;4992522;28;20449;-91
2023/07/13 10:11:52;;;;;;;6.73;2.40;;;34.60;95.30;;;;;;5000305;28;20829;-93
2023/07/13 10:14:27;;;;;;;3.85;2.42;;;34.60;95.30;;;;;;4999371;28;20422;-95
2023/07/13 10:17:21;;;;;;;5.25;2.58;;;34.60;94.90;;;;;;5023126;28;20424;-92
2023/07/13 10:19:55;;;;;;;4.63;2.55;;;34.60;94.80;;;;;;5011809;28;20411;-92
2023/07/13 10:22:48;;;;;;;4.03;2.58;;;34.50;94.80;;;;;;5013660;28;20411;-96
2023/07/13 10:25:23;;;;;;;4.38;2.58;;;34.50;94.80;;;;;;5016086;28;20401;-92
2023/07/13 10:28:09;;;;;;;4.97;2.65;;;34.40;94.70;;;;;;4999711;28;20407;-94
2023/07/13 10:30:52;;;;;;;5.32;2.40;;;34.40;94.90;;;;;;4998250;28;20473;-92
2023/07/13 10:33:26;;;;;;;3.40;2.60;;;34.20;94.60;;;;;;4966652;28;20414;-91
2023/07/13 10:36:47;;;;;;;3.97;2.45;;;34.20;94.80;;;;;;5001925;28;20419;-91
2023/07/13 10:39:46;;;;;;;6.40;2.90;;;34.30;94.50;;;;;;4993725;28;20422;-93
2023/07/13 10:42:42;;;;;;;4.68;2.90;;;34.10;94.50;;;;;;4996672;28;20407;-93
2023/07/13 10:45:31;;;;;;;10.27;3.00;;;34.20;94.40;;;;;;5010641;28;20411;-94
2023/07/13 10:48:11;;;;;;;8.07;2.90;;;34.00;94.60;;;;;;5015891;28;20410;-92
2023/07/13 10:50:52;;;;;;;5.07;2.90;;;34.00;94.00;;;;;;5015001;28;20411;-92
2023/07/13 10:53:36;;;;;;;4.10;2.78;;;34.00;94.20;;;;;;5000470;28;20407;-90
2023/07/13 10:56:28;;;;;;;9.23;2.83;;;33.80;93.80;;;;;;5014963;28;20441;-91
2023/07/13 10:59:25;;;;;;;6.85;2.80;;;33.80;93.70;;;;;;4996389;28;20417;-93
2023/07/13 11:02:28;;;;;;;6.10;2.88;;;33.90;93.40;;;;;;5028259;28;20427;-96
2023/07/13 11:04:58;;;;;;;4.93;2.90;;;33.90;93.20;;;;;;5018225;28;20493;-89
2023/07/13 11:07:56;;;;;;;7.25;2.83;;;33.90;93.70;;;;;;4978770;28;20783;-95
2023/07/13 11:10:56;;;;;;;3.95;3.05;;;33.90;93.20;;;;;;4996852;28;20535;-96
2023/07/13 11:14:05;;;;;;;5.90;3.13;;;33.80;93.20;;;;;;4994442;28;20480;-92
2023/07/13 11:17:14;;;;;;;6.38;2.90;;;33.80;93.40;;;;;;5026744;28;20453;-93
2023/07/13 11:19:43;;;;;;;24.50;3.80;;;33.80;93.80;;;;;;5027911;28;20900;-95
2023/07/13 11:22:21;;;;;;;6.85;3.30;;;33.90;93.30;;;;;;5012516;28;20492;-94
2023/07/13 11:25:34;;;;;;;6.75;2.85;;;33.80;93.50;;;;;;4994148;28;20426;-94
2023/07/13 11:28:23;;;;;;;7.17;3.07;;;33.80;93.40;;;;;;4990752;28;20497;-91
2023/07/13 11:30:55;;;;;;;6.03;3.00;;;33.80;92.80;;;;;;5011609;28;20564;-93
2023/07/13 11:33:44;;;;;;;4.82;3.33;;;33.70;92.30;;;;;;5008231;28;20415;-91
2023/07/13 11:36:37;;;;;;;5.47;3.20;;;33.80;91.60;;;;;;5029112;28;20457;-96
2023/07/13 11:39:23;;;;;;;5.82;3.40;;;33.80;91.40;;;;;;5008821;28;20450;-92
2023/07/13 11:42:03;;;;;;;5.30;3.35;;;33.90;90.90;;;;;;4996632;28;20434;-94
2023/07/13 11:44:34;;;;;;;5.60;3.50;;;33.90;90.40;;;;;;4992124;28;20903;-95
2023/07/13 11:47:23;;;;;;;7.90;3.50;;;33.90;90.10;;;;;;4994851;28;20407;-94
2023/07/13 11:49:59;;;;;;;6.53;3.55;;;33.90;90.00;;;;;;4990158;28;20423;-95
2023/07/13 11:52:40;;;;;;;12.77;3.60;;;34.00;88.20;;;;;;5009637;28;20411;-93
2023/07/13 11:55:23;;;;;;;5.82;3.85;;;34.00;89.20;;;;;;4986796;28;20419;-91
2023/07/13 11:58:03;;;;;;;5.85;3.55;;;34.10;88.10;;;;;;4981472;28;20458;-94
2023/07/13 12:00:38;;;;;;;7.57;3.22;;;34.10;87.50;;;;;;5008674;28;20415;-91
2023/07/13 12:03:16;;;;;;;7.80;3.40;;;34.10;88.10;;;;;;4991817;28;20503;-91
2023/07/13 12:06:19;;;;;;;6.75;3.28;;;34.10;88.50;;;;;;5000522;28;20505;-94
2023/07/13 12:08:46;;;;;;;6.53;3.50;;;34.10;87.40;;;;;;4990148;28;20421;-89
2023/07/13 12:11:19;;;;;;;7.72;3.60;;;34.10;86.50;;;;;;4992858;28;20418;-91
2023/07/13 12:13:55;;;;;;;8.20;3.40;;;34.10;87.00;;;;;;5008684;28;20419;-92
2023/07/13 12:16:34;;;;;;;6.25;3.67;;;34.10;88.00;;;;;;4987332;28;20426;-90
2023/07/13 12:19:03;;;;;;;6.50;3.58;;;34.10;87.00;;;;;;5007404;28;20604;-93
2023/07/13 12:21:38;;;;;;;9.60;3.53;;;34.20;87.80;;;;;;4978892;28;20425;-95
2023/07/13 12:24:19;;;;;;;5.95;3.55;;;34.20;87.10;;;;;;4992376;28;20483;-95
2023/07/13 12:27:05;;;;;;;6.57;3.90;;;34.20;86.40;;;;;;5015979;28;20410;-96
2023/07/13 12:29:34;;;;;;;6.90;4.03;;;34.20;85.50;;;;;;4975049;28;21081;-90
2023/07/13 12:32:17;;;;;;;9.23;3.35;;;34.20;85.80;;;;;;4973989;28;20486;-92
2023/07/13 12:38:35;;;;;;;6.30;3.40;;;34.20;85.60;;;;;;5028682;28;20421;-91
2023/07/13 12:41:14;;;;;;;6.00;3.30;;;34.10;85.90;;;;;;4995655;28;20462;-95
2023/07/13 12:43:56;;;;;;;5.55;3.50;;;34.10;85.40;;;;;;5003459;28;21121;-92
2023/07/13 12:46:31;;;;;;;5.25;3.58;;;34.10;85.10;;;;;;5009360;28;20946;-93
2023/07/13 12:49:14;;;;;;;3.92;3.40;;;34.10;85.20;;;;;;4994514;28;20402;-93
2023/07/13 12:52:00;;;;;;;5.00;3.50;;;34.10;86.00;;;;;;5006018;28;20837;-94
2023/07/13 12:54:39;;;;;;;6.95;3.63;;;34.00;85.80;;;;;;5002936;28;20493;-95
2023/07/13 12:57:20;;;;;;;4.63;3.80;;;34.10;84.90;;;;;;5013593;28;20422;-93
2023/07/13 12:59:57;;;;;;;6.45;3.90;;;34.10;84.70;;;;;;5010665;28;20419;-93
2023/07/13 13:02:37;;;;;;;5.22;3.63;;;34.10;83.30;;;;;;5017304;28;20437;-94
2023/07/13 13:05:11;;;;;;;6.45;4.28;;;34.10;84.10;;;;;;5008195;28;20533;-91
2023/07/13 13:07:41;;;;;;;6.95;3.63;;;34.10;82.40;;;;;;5014169;28;20418;-94
2023/07/13 13:10:16;;;;;;;5.20;4.00;;;34.10;83.10;;;;;;5015808;28;20422;-94
2023/07/13 13:12:45;;;;;;;7.90;3.97;;;34.00;81.40;;;;;;5019564;28;20843;-94
2023/07/13 13:15:21;;;;;;;4.55;3.53;;;34.00;82.80;;;;;;5011413;28;20398;-94
2023/07/13 13:17:58;;;;;;;6.57;3.77;;;33.90;83.90;;;;;;5028247;28;20711;-95
2023/07/13 13:20:31;;;;;;;5.80;3.58;;;33.90;84.50;;;;;;5005939;28;20785;-92
2023/07/13 13:22:59;;;;;;;6.40;4.10;;;34.00;85.00;;;;;;5005613;28;20854;-94
2023/07/13 13:25:27;;;;;;;5.03;3.80;;;34.00;82.90;;;;;;4978909;28;20419;-93
2023/07/13 13:27:57;;;;;;;6.30;3.83;;;34.10;82.90;;;;;;5000463;28;20420;-94
2023/07/13 13:30:25;;;;;;;8.48;4.15;;;34.10;81.90;;;;;;5012867;28;20482;-93
2023/07/13 13:32:53;;;;;;;5.25;3.95;;;34.20;81.20;;;;;;4992666;28;20970;-91
2023/07/13 13:35:22;;;;;;;5.78;4.30;;;34.20;81.10;;;;;;4983688;28;20920;-96
2023/07/13 13:38:01;;;;;;;6.90;4.28;;;34.10;81.40;;;;;;4995421;28;20411;-91
2023/07/13 13:40:41;;;;;;;4.10;3.70;;;34.00;81.20;;;;;;5030814;28;20769;-94
2023/07/13 13:43:34;;;;;;;4.53;3.90;;;34.00;79.00;;;;;;5032580;28;20422;-93